sensor_id;sensor_type;location;lat;lon;timestamp;pressure;altitude;pressure_sealevel;temperature;humidity
55590;BME280;41452;42.780;23.116;2023-03-16T00:01:55;93508.59;;;0.87;100.00
55590;BME280;41452;42.780;23.116;2023-03-16T00:04:20;93491.81;;;0.76;100.00
55590;BME280;41452;42.780;23.116;2023-03-16T00:06:46;93506.00;;;0.87;100.00
55590;BME280;41452;42.780;23.116;2023-03-16T00:09:11;93517.56;;;0.91;100.00
55590;BME280;41452;42.780;23.116;2023-03-16T00:11:37;93521.75;;;0.92;100.00
55590;BME280;41452;42.780;23.116;2023-03-16T00:14:02;93520.34;;;0.89;100.00
55590;BME280;41452;42.780;23.116;2023-03-16T00:16:28;93508.59;;;0.87;100.00
55590;BME280;41452;42.780;23.116;2023-03-16T00:18:54;93518.38;;;0.91;100.00
55590;BME280;41452;42.780;23.116;2023-03-16T00:21:19;93519.16;;;0.92;100.00
55590;BME280;41452;42.780;23.116;2023-03-16T00:23:45;93459.47;;;0.45;100.00
55590;BME280;41452;42.780;23.116;2023-03-16T00:26:10;93472.25;;;0.53;100.00
55590;BME280;41452;42.780;23.116;2023-03-16T00:28:37;93525.69;;;0.88;100.00
55590;BME280;41452;42.780;23.116;2023-03-16T00:31:08;93543.00;;;0.87;100.00
55590;BME280;41452;42.780;23.116;2023-03-16T00:33:37;93539.19;;;0.83;100.00
55590;BME280;41452;42.780;23.116;2023-03-16T00:36:04;93523.03;;;0.74;100.00
55590;BME280;41452;42.780;23.116;2023-03-16T00:38:34;93528.63;;;0.78;100.00
55590;BME280;41452;42.780;23.116;2023-03-16T00:41:00;93536.00;;;0.81;100.00
55590;BME280;41452;42.780;23.116;2023-03-16T00:43:32;93440.41;;;0.18;100.00
55590;BME280;41452;42.780;23.116;2023-03-16T00:46:08;93542.16;;;0.80;100.00
55590;BME280;41452;42.780;23.116;2023-03-16T00:48:37;93529.56;;;0.70;100.00
55590;BME280;41452;42.780;23.116;2023-03-16T00:51:05;93530.38;;;0.71;100.00
55590;BME280;41452;42.780;23.116;2023-03-16T00:53:35;93495.06;;;0.50;100.00
55590;BME280;41452;42.780;23.116;2023-03-16T00:56:02;93509.94;;;0.48;100.00
55590;BME280;41452;42.780;23.116;2023-03-16T00:58:29;93532.09;;;0.57;100.00
55590;BME280;41452;42.780;23.116;2023-03-16T01:01:02;93510.34;;;0.45;100.00
55590;BME280;41452;42.780;23.116;2023-03-16T01:03:28;93515.75;;;0.50;100.00
55590;BME280;41452;42.780;23.116;2023-03-16T01:05:53;93520.28;;;0.48;100.00
55590;BME280;41452;42.780;23.116;2023-03-16T01:08:24;93519.06;;;0.44;100.00
55590;BME280;41452;42.780;23.116;2023-03-16T01:10:49;93500.91;;;0.30;100.00
55590;BME280;41452;42.780;23.116;2023-03-16T01:13:15;93532.34;;;0.41;100.00
55590;BME280;41452;42.780;23.116;2023-03-16T01:15:40;93523.56;;;0.35;100.00
55590;BME280;41452;42.780;23.116;2023-03-16T01:18:06;93536.31;;;0.36;100.00
55590;BME280;41452;42.780;23.116;2023-03-16T01:20:31;93538.47;;;0.33;100.00
55590;BME280;41452;42.780;23.116;2023-03-16T01:22:57;93540.63;;;0.29;100.00
55590;BME280;41452;42.780;23.116;2023-03-16T01:25:23;93537.25;;;0.29;100.00
55590;BME280;41452;42.780;23.116;2023-03-16T01:27:48;93537.25;;;0.29;100.00
55590;BME280;41452;42.780;23.116;2023-03-16T01:30:13;93542.88;;;0.17;100.00
55590;BME280;41452;42.780;23.116;2023-03-16T01:32:39;93547.50;;;0.22;100.00
55590;BME280;41452;42.780;23.116;2023-03-16T01:35:06;93547.50;;;0.22;100.00
55590;BME280;41452;42.780;23.116;2023-03-16T01:37:31;93561.88;;;0.31;100.00
55590;BME280;41452;42.780;23.116;2023-03-16T01:39:57;93560.66;;;0.27;100.00
55590;BME280;41452;42.780;23.116;2023-03-16T01:42:22;93550.34;;;0.27;100.00
55590;BME280;41452;42.780;23.116;2023-03-16T01:44:55;93569.03;;;0.29;100.00
55590;BME280;41452;42.780;23.116;2023-03-16T01:47:21;93584.03;;;0.19;100.00
55590;BME280;41452;42.780;23.116;2023-03-16T01:49:48;93559.31;;;0.10;100.00
55590;BME280;41452;42.780;23.116;2023-03-16T01:52:18;93582.63;;;0.16;100.00
55590;BME280;41452;42.780;23.116;2023-03-16T01:54:55;93582.06;;;0.21;100.00
55590;BME280;41452;42.780;23.116;2023-03-16T01:57:28;93589.19;;;0.19;100.00
55590;BME280;41452;42.780;23.116;2023-03-16T02:00:00;93591.59;;;0.21;100.00
55590;BME280;41452;42.780;23.116;2023-03-16T02:02:32;93544.25;;;-0.08;100.00
55590;BME280;41452;42.780;23.116;2023-03-16T02:05:02;93590.47;;;0.30;100.00
55590;BME280;41452;42.780;23.116;2023-03-16T02:07:34;93591.09;;;0.32;100.00
55590;BME280;41452;42.780;23.116;2023-03-16T02:10:02;93583.66;;;0.22;100.00
55590;BME280;41452;42.780;23.116;2023-03-16T02:12:28;93583.25;;;0.18;100.00
55590;BME280;41452;42.780;23.116;2023-03-16T02:14:54;93535.31;;;-0.12;100.00
55590;BME280;41452;42.780;23.116;2023-03-16T02:17:28;93596.56;;;0.22;100.00
55590;BME280;41452;42.780;23.116;2023-03-16T02:22:45;93609.00;;;0.12;100.00
55590;BME280;41452;42.780;23.116;2023-03-16T02:25:12;93592.63;;;0.05;100.00
55590;BME280;41452;42.780;23.116;2023-03-16T02:30:25;93623.69;;;0.11;100.00
55590;BME280;41452;42.780;23.116;2023-03-16T02:32:51;93594.97;;;-0.01;100.00
55590;BME280;41452;42.780;23.116;2023-03-16T02:35:17;93623.13;;;0.16;100.00
55590;BME280;41452;42.780;23.116;2023-03-16T02:37:43;93541.44;;;-0.50;100.00
55590;BME280;41452;42.780;23.116;2023-03-16T02:40:29;93626.44;;;0.10;100.00
55590;BME280;41452;42.780;23.116;2023-03-16T02:43:02;93636.34;;;0.06;100.00
55590;BME280;41452;42.780;23.116;2023-03-16T02:45:32;93637.69;;;0.02;100.00
55590;BME280;41452;42.780;23.116;2023-03-16T02:48:01;93626.31;;;-0.04;100.00
55590;BME280;41452;42.780;23.116;2023-03-16T02:50:29;93621.13;;;-0.04;100.00
55590;BME280;41452;42.780;23.116;2023-03-16T02:52:55;93620.34;;;-0.04;100.00
55590;BME280;41452;42.780;23.116;2023-03-16T02:55:20;93625.31;;;-0.03;100.00
55590;BME280;41452;42.780;23.116;2023-03-16T02:57:46;93564.75;;;-0.43;100.00
55590;BME280;41452;42.780;23.116;2023-03-16T03:00:12;93623.00;;;0.03;100.00
55590;BME280;41452;42.780;23.116;2023-03-16T03:02:42;93590.13;;;-0.25;100.00
55590;BME280;41452;42.780;23.116;2023-03-16T03:05:07;93643.41;;;-0.03;100.00
55590;BME280;41452;42.780;23.116;2023-03-16T03:07:33;93611.66;;;-0.18;100.00
55590;BME280;41452;42.780;23.116;2023-03-16T03:09:58;93609.47;;;-0.21;100.00
55590;BME280;41452;42.780;23.116;2023-03-16T03:12:24;93631.66;;;-0.05;100.00
55590;BME280;41452;42.780;23.116;2023-03-16T03:14:49;93630.81;;;-0.12;100.00
55590;BME280;41452;42.780;23.116;2023-03-16T03:17:14;93620.50;;;-0.27;100.00
55590;BME280;41452;42.780;23.116;2023-03-16T03:19:40;93632.31;;;-0.18;100.00
55590;BME280;41452;42.780;23.116;2023-03-16T03:22:05;93649.47;;;-0.10;100.00
55590;BME280;41452;42.780;23.116;2023-03-16T03:24:32;93643.72;;;-0.27;100.00
55590;BME280;41452;42.780;23.116;2023-03-16T03:26:58;93651.72;;;-0.22;100.00
55590;BME280;41452;42.780;23.116;2023-03-16T03:29:33;93655.19;;;-0.15;100.00
55590;BME280;41452;42.780;23.116;2023-03-16T03:32:02;93651.63;;;-0.14;100.00
55590;BME280;41452;42.780;23.116;2023-03-16T03:34:29;93587.13;;;-0.65;100.00
55590;BME280;41452;42.780;23.116;2023-03-16T03:36:56;93665.84;;;-0.18;100.00
55590;BME280;41452;42.780;23.116;2023-03-16T03:39:21;93614.66;;;-0.51;100.00
55590;BME280;41452;42.780;23.116;2023-03-16T03:41:46;93666.69;;;-0.32;100.00
55590;BME280;41452;42.780;23.116;2023-03-16T03:44:12;93679.94;;;-0.21;100.00
55590;BME280;41452;42.780;23.116;2023-03-16T03:46:37;93649.00;;;-0.35;100.00
55590;BME280;41452;42.780;23.116;2023-03-16T03:49:02;93657.34;;;-0.33;100.00
55590;BME280;41452;42.780;23.116;2023-03-16T03:51:30;93661.78;;;-0.27;100.00
55590;BME280;41452;42.780;23.116;2023-03-16T03:53:57;93675.03;;;-0.15;100.00
55590;BME280;41452;42.780;23.116;2023-03-16T03:56:22;93672.63;;;-0.17;100.00
55590;BME280;41452;42.780;23.116;2023-03-16T03:58:48;93679.84;;;-0.12;100.00
55590;BME280;41452;42.780;23.116;2023-03-16T04:01:13;93688.63;;;-0.07;100.00
55590;BME280;41452;42.780;23.116;2023-03-16T04:03:38;93650.31;;;-0.25;100.00
55590;BME280;41452;42.780;23.116;2023-03-16T04:06:04;93683.09;;;-0.04;100.00
55590;BME280;41452;42.780;23.116;2023-03-16T04:08:31;93690.22;;;-0.06;100.00
55590;BME280;41452;42.780;23.116;2023-03-16T04:10:57;93685.31;;;-0.01;100.00
55590;BME280;41452;42.780;23.116;2023-03-16T04:13:22;93696.09;;;0.03;100.00
55590;BME280;41452;42.780;23.116;2023-03-16T04:15:48;93643.09;;;-0.29;100.00
55590;BME280;41452;42.780;23.116;2023-03-16T04:18:13;93697.78;;;-0.04;100.00
55590;BME280;41452;42.780;23.116;2023-03-16T04:20:39;93672.53;;;-0.24;100.00
55590;BME280;41452;42.780;23.116;2023-03-16T04:23:04;93675.22;;;-0.17;100.00
55590;BME280;41452;42.780;23.116;2023-03-16T04:25:30;93702.94;;;-0.04;100.00
55590;BME280;41452;42.780;23.116;2023-03-16T04:27:55;93700.72;;;-0.07;100.00
55590;BME280;41452;42.780;23.116;2023-03-16T04:30:21;93661.25;;;-0.38;100.00
55590;BME280;41452;42.780;23.116;2023-03-16T04:32:47;93704.38;;;-0.16;100.00
55590;BME280;41452;42.780;23.116;2023-03-16T04:35:13;93719.97;;;-0.10;100.00
55590;BME280;41452;42.780;23.116;2023-03-16T04:37:39;93708.94;;;-0.18;100.00
55590;BME280;41452;42.780;23.116;2023-03-16T04:40:06;93723.06;;;-0.14;100.00
55590;BME280;41452;42.780;23.116;2023-03-16T04:42:40;93713.38;;;-0.27;100.00
55590;BME280;41452;42.780;23.116;2023-03-16T04:45:06;93708.97;;;-0.33;100.00
55590;BME280;41452;42.780;23.116;2023-03-16T04:47:33;93729.03;;;-0.29;100.00
55590;BME280;41452;42.780;23.116;2023-03-16T04:50:00;93737.69;;;-0.36;100.00
55590;BME280;41452;42.780;23.116;2023-03-16T04:52:27;93739.31;;;-0.35;100.00
55590;BME280;41452;42.780;23.116;2023-03-16T04:54:52;93720.59;;;-0.52;100.00
55590;BME280;41452;42.780;23.116;2023-03-16T04:57:18;93746.91;;;-0.57;100.00
55590;BME280;41452;42.780;23.116;2023-03-16T04:59:43;93743.28;;;-0.48;100.00
55590;BME280;41452;42.780;23.116;2023-03-16T05:02:09;93732.78;;;-0.61;100.00
55590;BME280;41452;42.780;23.116;2023-03-16T05:04:34;93722.34;;;-0.68;100.00
55590;BME280;41452;42.780;23.116;2023-03-16T05:07:00;93729.13;;;-0.67;100.00
55590;BME280;41452;42.780;23.116;2023-03-16T05:09:25;93753.34;;;-0.53;100.00
55590;BME280;41452;42.780;23.116;2023-03-16T05:11:51;93745.06;;;-0.63;100.00
55590;BME280;41452;42.780;23.116;2023-03-16T05:14:16;93702.22;;;-1.02;100.00
55590;BME280;41452;42.780;23.116;2023-03-16T05:16:41;93755.19;;;-0.62;100.00
55590;BME280;41452;42.780;23.116;2023-03-16T05:19:07;93758.41;;;-0.60;100.00
55590;BME280;41452;42.780;23.116;2023-03-16T05:21:32;93721.09;;;-0.87;100.00
55590;BME280;41452;42.780;23.116;2023-03-16T05:23:59;93764.00;;;-0.56;100.00
55590;BME280;41452;42.780;23.116;2023-03-16T05:26:25;93745.41;;;-0.66;100.00
55590;BME280;41452;42.780;23.116;2023-03-16T05:28:50;93747.69;;;-0.71;100.00
55590;BME280;41452;42.780;23.116;2023-03-16T05:31:16;93777.00;;;-0.49;100.00
55590;BME280;41452;42.780;23.116;2023-03-16T05:33:42;93788.47;;;-0.52;100.00
55590;BME280;41452;42.780;23.116;2023-03-16T05:36:09;93779.31;;;-0.54;100.00
55590;BME280;41452;42.780;23.116;2023-03-16T05:38:34;93786.16;;;-0.47;100.00
55590;BME280;41452;42.780;23.116;2023-03-16T05:41:01;93791.31;;;-0.47;100.00
55590;BME280;41452;42.780;23.116;2023-03-16T05:43:29;93778.41;;;-0.62;100.00
55590;BME280;41452;42.780;23.116;2023-03-16T05:45:55;93796.03;;;-0.50;100.00
55590;BME280;41452;42.780;23.116;2023-03-16T05:48:21;93798.44;;;-0.49;100.00
55590;BME280;41452;42.780;23.116;2023-03-16T05:50:50;93798.25;;;-0.47;100.00
55590;BME280;41452;42.780;23.116;2023-03-16T05:53:16;93805.28;;;-0.56;100.00
55590;BME280;41452;42.780;23.116;2023-03-16T05:55:41;93804.66;;;-0.43;100.00
55590;BME280;41452;42.780;23.116;2023-03-16T05:58:06;93818.56;;;-0.44;100.00
55590;BME280;41452;42.780;23.116;2023-03-16T06:00:32;93813.22;;;-0.43;100.00
55590;BME280;41452;42.780;23.116;2023-03-16T06:02:57;93816.44;;;-0.41;100.00
55590;BME280;41452;42.780;23.116;2023-03-16T06:05:23;93821.75;;;-0.42;100.00
55590;BME280;41452;42.780;23.116;2023-03-16T06:07:50;93825.94;;;-0.41;100.00
55590;BME280;41452;42.780;23.116;2023-03-16T06:10:16;93823.19;;;-0.40;100.00
55590;BME280;41452;42.780;23.116;2023-03-16T06:12:41;93776.94;;;-0.79;100.00
55590;BME280;41452;42.780;23.116;2023-03-16T06:15:08;93833.38;;;-0.46;100.00
55590;BME280;41452;42.780;23.116;2023-03-16T06:17:35;93831.00;;;-0.48;100.00
55590;BME280;41452;42.780;23.116;2023-03-16T06:20:03;93836.06;;;-0.40;100.00
55590;BME280;41452;42.780;23.116;2023-03-16T06:22:33;93836.53;;;-0.36;100.00
55590;BME280;41452;42.780;23.116;2023-03-16T06:24:59;93777.41;;;-0.75;100.00
55590;BME280;41452;42.780;23.116;2023-03-16T06:27:24;93836.00;;;-0.31;100.00
55590;BME280;41452;42.780;23.116;2023-03-16T06:29:50;93804.75;;;-0.51;100.00
55590;BME280;41452;42.780;23.116;2023-03-16T06:32:16;93851.59;;;-0.25;100.00
55590;BME280;41452;42.780;23.116;2023-03-16T06:34:41;93791.03;;;-0.67;100.00
55590;BME280;41452;42.780;23.116;2023-03-16T06:37:07;93811.50;;;-0.50;100.00
55590;BME280;41452;42.780;23.116;2023-03-16T06:39:32;93856.56;;;-0.23;100.00
55590;BME280;41452;42.780;23.116;2023-03-16T06:41:58;93846.69;;;-0.34;100.00
55590;BME280;41452;42.780;23.116;2023-03-16T06:44:23;93862.09;;;-0.26;100.00
55590;BME280;41452;42.780;23.116;2023-03-16T06:46:49;93775.78;;;-0.77;100.00
55590;BME280;41452;42.780;23.116;2023-03-16T06:49:15;93837.34;;;-0.35;100.00
55590;BME280;41452;42.780;23.116;2023-03-16T06:51:40;93870.75;;;-0.19;100.00
55590;BME280;41452;42.780;23.116;2023-03-16T06:54:06;93869.84;;;-0.26;100.00
55590;BME280;41452;42.780;23.116;2023-03-16T06:56:31;93871.53;;;-0.18;100.00
55590;BME280;41452;42.780;23.116;2023-03-16T06:58:57;93828.34;;;-0.40;100.00
55590;BME280;41452;42.780;23.116;2023-03-16T07:01:22;93839.94;;;-0.35;100.00
55590;BME280;41452;42.780;23.116;2023-03-16T07:03:48;93891.28;;;-0.11;100.00
55590;BME280;41452;42.780;23.116;2023-03-16T07:06:14;93888.47;;;-0.16;100.00
55590;BME280;41452;42.780;23.116;2023-03-16T07:08:39;93880.88;;;-0.17;100.00
55590;BME280;41452;42.780;23.116;2023-03-16T07:11:04;93897.09;;;-0.09;100.00
55590;BME280;41452;42.780;23.116;2023-03-16T07:13:30;93885.50;;;-0.13;100.00
55590;BME280;41452;42.780;23.116;2023-03-16T07:15:55;93894.16;;;-0.06;100.00
55590;BME280;41452;42.780;23.116;2023-03-16T07:18:21;93875.28;;;-0.21;100.00
55590;BME280;41452;42.780;23.116;2023-03-16T07:20:46;93901.22;;;0.01;100.00
55590;BME280;41452;42.780;23.116;2023-03-16T07:23:11;93890.84;;;-0.14;100.00
55590;BME280;41452;42.780;23.116;2023-03-16T07:25:37;93909.91;;;-0.01;100.00
55590;BME280;41452;42.780;23.116;2023-03-16T07:28:03;93906.72;;;-0.03;100.00
55590;BME280;41452;42.780;23.116;2023-03-16T07:30:29;93906.16;;;-0.13;100.00
55590;BME280;41452;42.780;23.116;2023-03-16T07:32:55;93909.03;;;-0.08;100.00
55590;BME280;41452;42.780;23.116;2023-03-16T07:35:21;93916.41;;;-0.05;100.00
55590;BME280;41452;42.780;23.116;2023-03-16T07:37:46;93908.78;;;0.02;100.00
55590;BME280;41452;42.780;23.116;2023-03-16T07:40:12;93826.91;;;-0.42;100.00
55590;BME280;41452;42.780;23.116;2023-03-16T07:42:38;93844.44;;;-0.38;100.00
55590;BME280;41452;42.780;23.116;2023-03-16T07:45:04;93913.34;;;0.15;100.00
55590;BME280;41452;42.780;23.116;2023-03-16T07:47:30;93920.28;;;0.14;100.00
55590;BME280;41452;42.780;23.116;2023-03-16T07:49:57;93926.53;;;0.20;100.00
55590;BME280;41452;42.780;23.116;2023-03-16T07:52:23;93926.19;;;0.23;100.00
55590;BME280;41452;42.780;23.116;2023-03-16T07:54:48;93903.69;;;0.09;100.00
55590;BME280;41452;42.780;23.116;2023-03-16T07:57:14;93913.84;;;0.10;100.00
55590;BME280;41452;42.780;23.116;2023-03-16T07:59:39;93929.09;;;0.20;100.00
55590;BME280;41452;42.780;23.116;2023-03-16T08:02:09;93937.31;;;0.24;100.00
55590;BME280;41452;42.780;23.116;2023-03-16T08:04:35;93924.91;;;0.19;100.00
55590;BME280;41452;42.780;23.116;2023-03-16T08:07:01;93944.59;;;0.35;100.00
55590;BME280;41452;42.780;23.116;2023-03-16T08:09:26;93942.66;;;0.37;100.00
55590;BME280;41452;42.780;23.116;2023-03-16T08:11:52;93945.06;;;0.38;100.00
55590;BME280;41452;42.780;23.116;2023-03-16T08:14:18;93927.53;;;0.34;100.00
55590;BME280;41452;42.780;23.116;2023-03-16T08:16:43;93928.41;;;0.41;100.00
55590;BME280;41452;42.780;23.116;2023-03-16T08:19:09;93941.16;;;0.57;100.00
55590;BME280;41452;42.780;23.116;2023-03-16T08:21:35;93941.78;;;0.60;100.00
55590;BME280;41452;42.780;23.116;2023-03-16T08:24:01;93932.78;;;0.55;100.00
55590;BME280;41452;42.780;23.116;2023-03-16T08:26:26;93939.00;;;0.61;100.00
55590;BME280;41452;42.780;23.116;2023-03-16T08:28:52;93946.41;;;0.64;100.00
55590;BME280;41452;42.780;23.116;2023-03-16T08:31:19;93951.03;;;0.69;100.00
55590;BME280;41452;42.780;23.116;2023-03-16T08:33:46;93940.97;;;0.74;100.00
55590;BME280;41452;42.780;23.116;2023-03-16T08:36:13;93943.19;;;0.77;100.00
55590;BME280;41452;42.780;23.116;2023-03-16T08:38:40;93961.47;;;0.75;100.00
55590;BME280;41452;42.780;23.116;2023-03-16T08:41:06;93952.09;;;0.74;100.00
55590;BME280;41452;42.780;23.116;2023-03-16T08:43:32;93936.78;;;0.73;100.00
55590;BME280;41452;42.780;23.116;2023-03-16T08:45:58;93962.81;;;0.71;100.00
55590;BME280;41452;42.780;23.116;2023-03-16T08:48:24;93955.94;;;0.79;100.00
55590;BME280;41452;42.780;23.116;2023-03-16T08:50:49;93967.50;;;0.83;100.00
55590;BME280;41452;42.780;23.116;2023-03-16T08:53:16;93956.81;;;0.86;100.00
55590;BME280;41452;42.780;23.116;2023-03-16T08:55:43;93943.88;;;0.71;100.00
55590;BME280;41452;42.780;23.116;2023-03-16T08:58:09;93971.34;;;0.87;100.00
55590;BME280;41452;42.780;23.116;2023-03-16T09:00:36;93961.25;;;0.92;100.00
55590;BME280;41452;42.780;23.116;2023-03-16T09:03:02;93951.09;;;0.90;100.00
55590;BME280;41452;42.780;23.116;2023-03-16T09:05:27;93974.91;;;1.01;100.00
55590;BME280;41452;42.780;23.116;2023-03-16T09:07:53;93980.88;;;1.01;100.00
55590;BME280;41452;42.780;23.116;2023-03-16T09:10:20;93978.94;;;1.03;100.00
55590;BME280;41452;42.780;23.116;2023-03-16T09:12:50;93951.56;;;0.79;100.00
55590;BME280;41452;42.780;23.116;2023-03-16T09:15:17;93976.56;;;1.08;100.00
55590;BME280;41452;42.780;23.116;2023-03-16T09:17:44;93980.50;;;1.04;100.00
55590;BME280;41452;42.780;23.116;2023-03-16T09:20:11;93942.00;;;0.80;100.00
55590;BME280;41452;42.780;23.116;2023-03-16T09:22:37;93996.75;;;0.98;100.00
55590;BME280;41452;42.780;23.116;2023-03-16T09:25:07;93989.06;;;1.05;100.00
55590;BME280;41452;42.780;23.116;2023-03-16T09:27:34;93979.41;;;1.13;100.00
55590;BME280;41452;42.780;23.116;2023-03-16T09:30:08;93983.72;;;1.21;100.00
55590;BME280;41452;42.780;23.116;2023-03-16T09:32:34;93982.44;;;1.32;100.00
55590;BME280;41452;42.780;23.116;2023-03-16T09:35:01;93940.13;;;1.03;100.00
55590;BME280;41452;42.780;23.116;2023-03-16T09:37:27;93991.59;;;1.49;100.00
55590;BME280;41452;42.780;23.116;2023-03-16T09:39:52;93991.84;;;1.55;100.00
55590;BME280;41452;42.780;23.116;2023-03-16T09:47:32;93976.53;;;1.38;100.00
55590;BME280;41452;42.780;23.116;2023-03-16T09:50:14;93987.91;;;1.59;100.00
55590;BME280;41452;42.780;23.116;2023-03-16T09:53:30;93997.66;;;1.78;100.00
55590;BME280;41452;42.780;23.116;2023-03-16T09:55:37;94000.69;;;1.82;100.00
55590;BME280;41452;42.780;23.116;2023-03-16T09:58:14;93998.53;;;1.85;100.00
55590;BME280;41452;42.780;23.116;2023-03-16T10:03:31;93993.78;;;1.89;100.00
55590;BME280;41452;42.780;23.116;2023-03-16T10:06:02;93965.47;;;1.66;100.00
55590;BME280;41452;42.780;23.116;2023-03-16T10:08:36;94007.59;;;1.96;100.00
55590;BME280;41452;42.780;23.116;2023-03-16T10:13:50;94020.34;;;1.98;100.00
55590;BME280;41452;42.780;23.116;2023-03-16T10:16:26;94007.75;;;1.95;100.00
55590;BME280;41452;42.780;23.116;2023-03-16T10:21:39;93990.19;;;1.90;100.00
55590;BME280;41452;42.780;23.116;2023-03-16T10:24:23;94008.38;;;1.97;100.00
55590;BME280;41452;42.780;23.116;2023-03-16T10:26:58;93985.56;;;1.85;100.00
55590;BME280;41452;42.780;23.116;2023-03-16T10:29:33;94017.50;;;2.14;100.00
55590;BME280;41452;42.780;23.116;2023-03-16T10:32:00;94010.34;;;2.16;100.00
55590;BME280;41452;42.780;23.116;2023-03-16T10:34:27;94020.72;;;2.16;100.00
55590;BME280;41452;42.780;23.116;2023-03-16T10:36:53;94002.34;;;1.89;97.40
55590;BME280;41452;42.780;23.116;2023-03-16T10:39:19;94019.47;;;2.12;99.72
55590;BME280;41452;42.780;23.116;2023-03-16T10:41:53;94011.03;;;2.03;98.58
55590;BME280;41452;42.780;23.116;2023-03-16T10:44:26;93975.06;;;1.72;98.92
55590;BME280;41452;42.780;23.116;2023-03-16T10:47:00;94018.25;;;2.08;97.83
55590;BME280;41452;42.780;23.116;2023-03-16T10:49:41;93982.63;;;1.88;98.52
55590;BME280;41452;42.780;23.116;2023-03-16T10:54:57;94006.66;;;2.04;99.25
55590;BME280;41452;42.780;23.116;2023-03-16T10:57:32;94003.88;;;1.84;98.33
55590;BME280;41452;42.780;23.116;2023-03-16T11:00:03;94025.88;;;1.95;99.79
55590;BME280;41452;42.780;23.116;2023-03-16T11:02:33;93947.88;;;1.40;98.17
55590;BME280;41452;42.780;23.116;2023-03-16T11:05:31;94020.59;;;1.81;98.36
55590;BME280;41452;42.780;23.116;2023-03-16T11:08:06;94024.53;;;1.77;97.99
55590;BME280;41452;42.780;23.116;2023-03-16T11:10:39;94018.72;;;1.75;98.81
55590;BME280;41452;42.780;23.116;2023-03-16T11:13:12;93977.38;;;1.60;99.65
55590;BME280;41452;42.780;23.116;2023-03-16T11:15:46;94003.94;;;1.69;99.64
55590;BME280;41452;42.780;23.116;2023-03-16T11:18:47;94027.53;;;1.81;97.63
55590;BME280;41452;42.780;23.116;2023-03-16T11:21:22;94026.16;;;1.63;98.61
55590;BME280;41452;42.780;23.116;2023-03-16T11:23:54;94013.47;;;1.68;99.75
55590;BME280;41452;42.780;23.116;2023-03-16T11:26:23;94018.13;;;1.73;99.29
55590;BME280;41452;42.780;23.116;2023-03-16T11:29:08;94029.81;;;1.69;97.92
55590;BME280;41452;42.780;23.116;2023-03-16T11:31:58;94032.47;;;1.76;100.00
55590;BME280;41452;42.780;23.116;2023-03-16T11:34:30;94020.97;;;1.78;100.00
55590;BME280;41452;42.780;23.116;2023-03-16T11:37:03;94027.94;;;1.78;98.81
55590;BME280;41452;42.780;23.116;2023-03-16T11:39:46;93996.78;;;1.49;99.18
55590;BME280;41452;42.780;23.116;2023-03-16T11:42:37;93960.56;;;1.35;100.00
55590;BME280;41452;42.780;23.116;2023-03-16T11:45:22;94022.41;;;1.66;98.98
55590;BME280;41452;42.780;23.116;2023-03-16T11:48:12;94028.97;;;1.62;100.00
55590;BME280;41452;42.780;23.116;2023-03-16T11:58:39;94019.84;;;1.66;99.85
55590;BME280;41452;42.780;23.116;2023-03-16T12:04:52;94028.97;;;1.62;100.00
55590;BME280;41452;42.780;23.116;2023-03-16T12:10:14;94037.50;;;1.62;99.19
55590;BME280;41452;42.780;23.116;2023-03-16T12:12:29;93982.28;;;1.19;100.00
55590;BME280;41452;42.780;23.116;2023-03-16T12:15:16;94044.75;;;1.52;100.00
55590;BME280;41452;42.780;23.116;2023-03-16T12:17:44;93975.44;;;1.11;100.00
55590;BME280;41452;42.780;23.116;2023-03-16T12:20:20;93989.44;;;1.02;100.00
55590;BME280;41452;42.780;23.116;2023-03-16T12:22:52;94044.41;;;1.40;100.00
55590;BME280;41452;42.780;23.116;2023-03-16T12:25:30;94046.06;;;1.26;100.00
55590;BME280;41452;42.780;23.116;2023-03-16T12:27:59;93957.91;;;0.77;100.00
55590;BME280;41452;42.780;23.116;2023-03-16T12:30:42;94050.97;;;1.21;100.00
55590;BME280;41452;42.780;23.116;2023-03-16T12:38:50;94062.84;;;1.16;100.00
55590;BME280;41452;42.780;23.116;2023-03-16T12:41:55;94067.56;;;1.12;100.00
55590;BME280;41452;42.780;23.116;2023-03-16T12:44:55;94072.00;;;1.18;100.00
55590;BME280;41452;42.780;23.116;2023-03-16T12:47:25;94070.59;;;1.16;100.00
55590;BME280;41452;42.780;23.116;2023-03-16T12:50:06;94066.09;;;1.24;100.00
55590;BME280;41452;42.780;23.116;2023-03-16T12:52:45;94059.53;;;1.22;100.00
55590;BME280;41452;42.780;23.116;2023-03-16T12:57:42;93982.03;;;0.54;100.00
55590;BME280;41452;42.780;23.116;2023-03-16T13:00:11;94073.88;;;1.24;100.00
55590;BME280;41452;42.780;23.116;2023-03-16T13:02:43;94061.75;;;1.10;100.00
55590;BME280;41452;42.780;23.116;2023-03-16T13:05:15;94071.50;;;1.23;100.00
55590;BME280;41452;42.780;23.116;2023-03-16T13:07:47;94067.00;;;1.17;100.00
55590;BME280;41452;42.780;23.116;2023-03-16T13:10:13;94072.28;;;1.23;100.00
55590;BME280;41452;42.780;23.116;2023-03-16T13:12:41;94068.91;;;1.23;100.00
55590;BME280;41452;42.780;23.116;2023-03-16T13:17:42;94072.66;;;1.35;100.00
55590;BME280;41452;42.780;23.116;2023-03-16T13:20:25;94087.16;;;1.36;100.00
55590;BME280;41452;42.780;23.116;2023-03-16T13:25:56;94062.91;;;1.37;100.00
55590;BME280;41452;42.780;23.116;2023-03-16T13:28:31;94081.81;;;1.38;100.00
55590;BME280;41452;42.780;23.116;2023-03-16T13:30:57;94084.84;;;1.41;100.00
55590;BME280;41452;42.780;23.116;2023-03-16T13:33:26;94089.31;;;1.32;100.00
55590;BME280;41452;42.780;23.116;2023-03-16T13:35:55;94098.31;;;1.37;100.00
55590;BME280;41452;42.780;23.116;2023-03-16T13:38:23;94082.19;;;1.20;100.00
55590;BME280;41452;42.780;23.116;2023-03-16T13:41:12;94087.97;;;1.22;100.00
55590;BME280;41452;42.780;23.116;2023-03-16T13:43:41;94094.66;;;1.16;100.00
55590;BME280;41452;42.780;23.116;2023-03-16T13:46:15;94096.03;;;1.12;100.00